createdAt,value
2023-05-19T00:01:08.698Z,100502.13
2023-05-19T00:03:40.736Z,100493.59
2023-05-19T00:06:12.562Z,100491.31
2023-05-19T00:08:43.198Z,100494.31
2023-05-19T00:11:23.136Z,100506.34
2023-05-19T00:13:56.823Z,100492.03
2023-05-19T00:16:31.572Z,100498.16
2023-05-19T00:19:05.914Z,100494.78
2023-05-19T00:21:37.912Z,100493.94
2023-05-19T00:24:12.278Z,100487.69
2023-05-19T00:26:51.166Z,100492.38
2023-05-19T00:29:21.434Z,100490.56
2023-05-19T00:31:54.149Z,100490.22
2023-05-19T00:34:26.660Z,100487.34
2023-05-19T00:36:57.294Z,100495.28
2023-05-19T00:39:27.245Z,100497.31
2023-05-19T00:42:00.387Z,100496.59
2023-05-19T00:44:32.025Z,100488.91
2023-05-19T00:47:02.764Z,100495.16
2023-05-19T00:49:36.972Z,100495.25
2023-05-19T00:52:09.779Z,100496.34
2023-05-19T00:54:43.350Z,100483.22
2023-05-19T00:57:19.881Z,100479.03
2023-05-19T00:59:50.582Z,100478.56
2023-05-19T01:02:21.823Z,100475.19
2023-05-19T01:04:53.776Z,100479.97
2023-05-19T01:07:25.683Z,100486.00
2023-05-19T01:09:56.227Z,100479.25
2023-05-19T01:12:29.359Z,100478.63
2023-05-19T01:15:01.779Z,100478.84
2023-05-19T01:17:40.576Z,100479.69
2023-05-19T01:20:20.049Z,100484.25
2023-05-19T01:23:24.136Z,100481.94
2023-05-19T01:26:16.344Z,100477.41
2023-05-19T01:29:31.413Z,100481.00
2023-05-19T01:32:11.455Z,100472.47
2023-05-19T01:34:47.676Z,100484.97
2023-05-19T01:37:19.239Z,100482.56
2023-05-19T01:39:51.391Z,100483.50
2023-05-19T01:42:23.856Z,100471.50
2023-05-19T01:44:55.458Z,100467.28
2023-05-19T01:47:32.025Z,100474.34
2023-05-19T01:50:19.664Z,100472.91
2023-05-19T01:52:50.203Z,100476.72
2023-05-19T01:55:21.450Z,100477.78
2023-05-19T01:58:06.181Z,100478.78
2023-05-19T02:00:48.450Z,100480.81
2023-05-19T02:03:36.313Z,100492.56
2023-05-19T02:06:19.996Z,100484.00
2023-05-19T02:09:03.921Z,100491.19
2023-05-19T02:11:39.775Z,100483.63
2023-05-19T02:14:16.756Z,100482.41
2023-05-19T02:16:50.800Z,100490.78
2023-05-19T02:19:29.591Z,100482.47
2023-05-19T02:21:59.946Z,100486.06
2023-05-19T02:24:32.566Z,100487.97
2023-05-19T02:27:03.323Z,100489.88
2023-05-19T02:29:35.976Z,100488.06
2023-05-19T02:32:06.335Z,100482.16
2023-05-19T02:34:39.148Z,100484.69
2023-05-19T02:37:09.597Z,100486.84
2023-05-19T02:39:43.363Z,100486.13
2023-05-19T02:42:17.939Z,100488.13
2023-05-19T02:44:48.499Z,100486.56
2023-05-19T02:47:19.258Z,100489.09
2023-05-19T02:49:56.104Z,100483.59
2023-05-19T02:52:26.101Z,100479.16
2023-05-19T02:54:56.695Z,100486.22
2023-05-19T02:57:30.392Z,100484.31
2023-05-19T03:00:00.976Z,100482.91
2023-05-19T03:02:34.679Z,100486.56
2023-05-19T03:05:14.584Z,100484.16
2023-05-19T03:07:47.782Z,100483.63
2023-05-19T03:10:18.154Z,100488.59
2023-05-19T03:12:51.154Z,100488.41
2023-05-19T03:15:24.836Z,100475.56
2023-05-19T03:17:55.377Z,100483.81
2023-05-19T03:20:28.054Z,100472.69
2023-05-19T03:22:58.278Z,100484.81
2023-05-19T03:25:30.220Z,100480.75
2023-05-19T03:28:02.962Z,100488.00
2023-05-19T03:30:33.495Z,100489.81
2023-05-19T03:33:07.592Z,100487.56
2023-05-19T03:35:40.734Z,100500.44
2023-05-19T03:38:12.086Z,100501.44
2023-05-19T03:40:42.439Z,100498.97
2023-05-19T03:43:16.494Z,100492.97
2023-05-19T03:45:46.812Z,100492.16
2023-05-19T03:48:21.187Z,100493.94
2023-05-19T03:50:56.084Z,100500.22
2023-05-19T03:53:30.595Z,100501.19
2023-05-19T03:56:04.716Z,100504.75
2023-05-19T03:58:37.271Z,100503.94
2023-05-19T04:01:07.945Z,100502.94
2023-05-19T04:03:39.209Z,100496.06
2023-05-19T04:06:15.856Z,100501.53
2023-05-19T04:08:47.257Z,100504.53
2023-05-19T04:11:17.657Z,100498.47
2023-05-19T04:13:52.169Z,100501.47
2023-05-19T04:16:25.707Z,100500.88
2023-05-19T04:18:58.658Z,100499.59
2023-05-19T04:21:31.646Z,100504.47
2023-05-19T04:24:02.935Z,100506.63
2023-05-19T04:26:36.337Z,100509.50
2023-05-19T04:29:06.798Z,100510.69
2023-05-19T04:31:37.787Z,100513.63
2023-05-19T04:34:08.313Z,100508.91
2023-05-19T04:36:41.801Z,100507.03
2023-05-19T04:39:14.714Z,100509.31
2023-05-19T04:41:45.369Z,100513.03
2023-05-19T04:44:18.636Z,100503.88
2023-05-19T04:46:49.071Z,100499.19
2023-05-19T04:49:19.470Z,100500.63
2023-05-19T04:51:56.852Z,100501.88
2023-05-19T04:54:29.497Z,100505.41
2023-05-19T04:57:02.598Z,100502.84
2023-05-19T04:59:34.341Z,100496.16
2023-05-19T05:02:07.174Z,100497.03
2023-05-19T05:04:37.967Z,100496.00
2023-05-19T05:07:11.259Z,100495.38
2023-05-19T05:09:41.556Z,100494.03
2023-05-19T05:12:15.865Z,100492.31
2023-05-19T05:14:49.257Z,100492.00
2023-05-19T05:17:29.049Z,100502.03
2023-05-19T05:20:06.410Z,100500.75
2023-05-19T05:22:40.110Z,100500.63
2023-05-19T05:25:12.392Z,100502.84
2023-05-19T05:27:45.781Z,100498.50
2023-05-19T05:30:16.747Z,100507.72
2023-05-19T05:32:52.516Z,100507.03
2023-05-19T05:35:27.894Z,100506.25
2023-05-19T05:38:14.377Z,100508.94
2023-05-19T05:40:44.722Z,100512.03
2023-05-19T05:43:17.704Z,100508.88
2023-05-19T05:45:48.283Z,100504.59
2023-05-19T05:48:19.420Z,100520.38
2023-05-19T05:50:57.550Z,100511.09
2023-05-19T05:53:36.054Z,100514.34
2023-05-19T05:56:16.109Z,100515.81
2023-05-19T05:58:49.762Z,100518.16
2023-05-19T06:01:24.237Z,100517.16
2023-05-19T06:03:55.228Z,100517.91
2023-05-19T06:06:25.643Z,100518.25
2023-05-19T06:08:59.380Z,100521.22
2023-05-19T06:11:35.182Z,100524.78
2023-05-19T06:14:05.608Z,100520.41
2023-05-19T06:16:38.062Z,100520.56
2023-05-19T06:19:08.686Z,100538.66
2023-05-19T06:21:39.045Z,100540.41
2023-05-19T06:24:13.362Z,100543.00
2023-05-19T06:26:44.947Z,100535.78
2023-05-19T06:29:18.396Z,100539.88
2023-05-19T06:31:49.826Z,100537.56
2023-05-19T06:34:21.310Z,100538.75
2023-05-19T06:36:51.652Z,100541.75
2023-05-19T06:39:25.127Z,100547.16
2023-05-19T06:41:55.503Z,100545.59
2023-05-19T06:44:33.144Z,100543.03
2023-05-19T06:47:03.457Z,100538.53
2023-05-19T06:49:33.884Z,100540.44
2023-05-19T06:52:04.381Z,100549.25
2023-05-19T06:54:39.587Z,100547.13
2023-05-19T06:57:12.591Z,100551.44
2023-05-19T06:59:44.028Z,100555.81
2023-05-19T07:02:15.575Z,100553.78
2023-05-19T07:04:46.226Z,100547.28
2023-05-19T07:07:19.200Z,100553.97
2023-05-19T07:09:52.124Z,100552.69
2023-05-19T07:12:22.418Z,100548.72
2023-05-19T07:14:52.684Z,100547.47
2023-05-19T07:17:24.814Z,100552.59
2023-05-19T07:19:58.274Z,100550.56
2023-05-19T07:22:31.339Z,100551.00
2023-05-19T07:25:04.555Z,100542.88
2023-05-19T07:27:34.941Z,100543.69
2023-05-19T07:30:05.349Z,100543.75
2023-05-19T07:32:38.694Z,100544.22
2023-05-19T07:35:09.952Z,100538.63
2023-05-19T07:37:41.796Z,100541.25
2023-05-19T07:40:15.374Z,100536.97
2023-05-19T07:42:45.674Z,100544.16
2023-05-19T07:45:17.038Z,100543.59
2023-05-19T07:47:47.547Z,100550.75
2023-05-19T07:50:17.939Z,100542.56
2023-05-19T07:52:50.645Z,100547.94
2023-05-19T07:55:23.597Z,100548.13
2023-05-19T07:57:57.558Z,100551.47
2023-05-19T08:00:32.044Z,100551.44
2023-05-19T08:03:06.185Z,100550.84
2023-05-19T08:05:40.058Z,100546.34
2023-05-19T08:08:17.351Z,100542.16
2023-05-19T08:10:50.286Z,100542.78
2023-05-19T08:13:20.726Z,100547.09
2023-05-19T08:15:54.645Z,100545.81
2023-05-19T08:18:28.158Z,100538.16
2023-05-19T08:20:58.818Z,100547.41
2023-05-19T08:23:29.354Z,100546.16
2023-05-19T08:26:02.540Z,100541.41
2023-05-19T08:28:35.070Z,100548.28
2023-05-19T08:31:05.368Z,100537.34
2023-05-19T08:33:35.724Z,100537.09
2023-05-19T08:36:06.831Z,100539.38
2023-05-19T08:38:37.142Z,100543.91
2023-05-19T08:41:10.148Z,100534.66
2023-05-19T08:43:40.669Z,100537.81
2023-05-19T08:46:10.946Z,100537.38
2023-05-19T08:48:45.301Z,100543.41
2023-05-19T08:51:28.588Z,100543.78
2023-05-19T08:54:07.571Z,100538.06
2023-05-19T08:56:41.782Z,100542.56
2023-05-19T08:59:12.777Z,100533.38
2023-05-19T09:01:46.956Z,100533.13
2023-05-19T09:04:18.566Z,100528.97
2023-05-19T09:06:50.539Z,100531.53
2023-05-19T09:09:20.801Z,100530.94
2023-05-19T09:12:02.803Z,100521.16
2023-05-19T09:14:33.334Z,100524.59
2023-05-19T09:17:04.728Z,100524.13
2023-05-19T09:19:37.766Z,100521.16
2023-05-19T09:22:08.416Z,100521.75
2023-05-19T09:24:40.710Z,100524.75
2023-05-19T09:27:17.686Z,100516.19
2023-05-19T09:29:48.074Z,100510.63
2023-05-19T09:32:27.995Z,100506.28
2023-05-19T09:34:59.083Z,100513.56
2023-05-19T09:37:32.435Z,100508.28
2023-05-19T09:40:03.156Z,100502.13
2023-05-19T09:42:41.180Z,100502.69
2023-05-19T09:45:12.492Z,100502.28
2023-05-19T09:47:44.228Z,100500.28
2023-05-19T09:50:17.316Z,100504.13
2023-05-19T09:52:47.788Z,100499.50
2023-05-19T09:55:19.008Z,100502.06
2023-05-19T09:57:53.172Z,100498.63
2023-05-19T10:00:24.387Z,100496.94
2023-05-19T10:02:55.245Z,100486.94
2023-05-19T10:05:26.663Z,100497.44
2023-05-19T10:07:58.336Z,100479.25
2023-05-19T10:10:31.452Z,100485.53
2023-05-19T10:13:05.456Z,100476.19
2023-05-19T10:15:40.700Z,100483.38
2023-05-19T10:18:16.378Z,100483.25
2023-05-19T10:20:47.247Z,100477.56
2023-05-19T10:23:17.566Z,100480.28
2023-05-19T10:25:49.486Z,100476.31
2023-05-19T10:28:25.705Z,100477.53
2023-05-19T10:31:05.693Z,100476.31
2023-05-19T10:33:45.617Z,100469.19
2023-05-19T10:36:36.632Z,100470.00
2023-05-19T10:39:10.665Z,100470.09
2023-05-19T10:41:49.733Z,100471.66
2023-05-19T10:44:31.547Z,100464.75
2023-05-19T10:47:07.887Z,100456.84
2023-05-19T10:49:38.864Z,100453.72
2023-05-19T10:52:29.964Z,100451.03
2023-05-19T10:55:00.824Z,100454.88
2023-05-19T10:57:34.972Z,100457.47
2023-05-19T11:00:32.445Z,100443.56
2023-05-19T11:03:21.052Z,100451.16
2023-05-19T11:05:53.239Z,100446.91
2023-05-19T11:08:35.425Z,100440.97
2023-05-19T11:11:19.126Z,100441.78
2023-05-19T11:13:51.247Z,100448.13
2023-05-19T11:16:35.763Z,100432.22
2023-05-19T11:19:06.276Z,100448.09
2023-05-19T11:21:50.747Z,100445.41
2023-05-19T11:24:36.669Z,100441.06
2023-05-19T11:27:22.710Z,100441.16
2023-05-19T11:29:53.657Z,100440.28
2023-05-19T11:32:33.816Z,100438.53
2023-05-19T11:35:09.289Z,100445.88
2023-05-19T11:37:43.083Z,100443.63
2023-05-19T11:40:20.316Z,100440.69
2023-05-19T11:42:50.621Z,100441.97
2023-05-19T11:45:23.081Z,100441.63
2023-05-19T11:48:02.608Z,100438.84
2023-05-19T11:50:37.121Z,100440.97
2023-05-19T11:53:12.423Z,100428.38
2023-05-19T11:55:51.905Z,100428.72
2023-05-19T11:58:29.456Z,100423.81
2023-05-19T12:00:59.946Z,100416.91
2023-05-19T12:03:33.384Z,100410.19
2023-05-19T12:06:11.516Z,100407.19
2023-05-19T12:08:44.437Z,100403.13
2023-05-19T12:11:14.866Z,100411.63
2023-05-19T12:13:45.387Z,100406.34
2023-05-19T12:16:15.749Z,100405.22
2023-05-19T12:18:48.776Z,100399.25
2023-05-19T12:21:20.260Z,100407.88
2023-05-19T12:23:52.934Z,100399.22
2023-05-19T12:26:23.365Z,100393.09
2023-05-19T12:28:56.775Z,100390.59
2023-05-19T12:31:27.197Z,100391.16
2023-05-19T12:34:02.382Z,100393.47
2023-05-19T12:36:35.973Z,100383.84
2023-05-19T12:39:09.765Z,100386.19
2023-05-19T12:41:40.181Z,100380.16
2023-05-19T12:44:21.524Z,100379.44
2023-05-19T12:47:01.658Z,100379.31
2023-05-19T12:49:37.613Z,100375.91
2023-05-19T12:52:13.199Z,100371.09
2023-05-19T12:54:43.974Z,100367.94
2023-05-19T12:57:14.365Z,100369.00
2023-05-19T12:59:47.185Z,100367.78
2023-05-19T13:02:21.317Z,100369.06
2023-05-19T13:04:54.654Z,100364.84
2023-05-19T13:07:31.164Z,100365.31
2023-05-19T13:10:01.735Z,100349.56
2023-05-19T13:12:39.492Z,100351.03
2023-05-19T13:15:14.833Z,100354.13
2023-05-19T13:17:49.085Z,100348.94
2023-05-19T13:20:22.176Z,100345.63
2023-05-19T13:22:54.394Z,100341.44
2023-05-19T13:25:36.661Z,100334.13
2023-05-19T13:28:14.314Z,100335.84
2023-05-19T13:30:46.633Z,100319.66
2023-05-19T13:33:17.278Z,100327.72
2023-05-19T13:35:50.771Z,100323.41
2023-05-19T13:38:21.427Z,100330.56
2023-05-19T13:40:53.896Z,100320.94
2023-05-19T13:43:24.327Z,100318.78
2023-05-19T13:45:55.177Z,100315.94
2023-05-19T13:48:25.857Z,100315.06
2023-05-19T13:50:59.872Z,100312.78
2023-05-19T13:53:31.403Z,100309.78
2023-05-19T13:56:03.786Z,100309.69
2023-05-19T13:58:36.259Z,100307.50
2023-05-19T14:01:07.099Z,100314.16
2023-05-19T14:03:41.748Z,100315.34
2023-05-19T14:06:14.894Z,100316.50
2023-05-19T14:08:47.792Z,100314.75
2023-05-19T14:11:21.873Z,100314.56
2023-05-19T14:13:53.158Z,100306.72
2023-05-19T14:16:26.373Z,100316.88
2023-05-19T14:18:59.213Z,100318.00
2023-05-19T14:21:32.821Z,100321.88
2023-05-19T14:24:03.172Z,100312.91
2023-05-19T14:26:33.744Z,100315.94
2023-05-19T14:29:06.298Z,100313.25
2023-05-19T14:31:40.261Z,100323.06
2023-05-19T14:34:10.589Z,100314.75
2023-05-19T14:36:43.771Z,100313.28
2023-05-19T14:39:14.547Z,100314.81
2023-05-19T14:41:50.080Z,100316.81
2023-05-19T14:44:26.570Z,100311.44
2023-05-19T14:46:56.919Z,100311.00
2023-05-19T14:49:27.261Z,100313.84
2023-05-19T14:52:02.581Z,100312.22
2023-05-19T14:54:32.923Z,100310.25
2023-05-19T14:57:03.574Z,100312.13
2023-05-19T14:59:40.136Z,100310.84
2023-05-19T15:02:13.288Z,100310.16
2023-05-19T15:04:43.607Z,100314.25
2023-05-19T15:07:21.899Z,100308.28
2023-05-19T15:09:52.406Z,100311.97
2023-05-19T15:12:25.795Z,100312.66
2023-05-19T15:14:56.528Z,100305.53
2023-05-19T15:17:26.860Z,100308.41
2023-05-19T15:19:57.222Z,100306.56
2023-05-19T15:22:31.317Z,100307.03
2023-05-19T15:25:01.728Z,100299.75
2023-05-19T15:27:32.215Z,100304.56
2023-05-19T15:30:02.586Z,100301.19
2023-05-19T15:32:32.928Z,100295.38
2023-05-19T15:35:03.963Z,100307.91
2023-05-19T15:37:36.780Z,100298.69
2023-05-19T15:40:07.960Z,100299.78
2023-05-19T15:42:38.558Z,100297.47
2023-05-19T15:45:13.125Z,100294.69
2023-05-19T15:47:45.803Z,100297.94
2023-05-19T15:50:18.538Z,100294.47
2023-05-19T15:52:59.463Z,100293.91
2023-05-19T15:55:42.184Z,100297.16
2023-05-19T15:58:15.815Z,100292.88
2023-05-19T16:00:46.698Z,100291.09
2023-05-19T16:03:17.024Z,100294.66
2023-05-19T16:05:47.384Z,100295.28
2023-05-19T16:08:20.282Z,100302.56
2023-05-19T16:10:50.476Z,100289.31
2023-05-19T16:13:20.816Z,100290.50
2023-05-19T16:15:54.659Z,100290.38
2023-05-19T16:18:32.051Z,100287.56
2023-05-19T16:21:04.496Z,100295.22
2023-05-19T16:23:38.757Z,100296.91
2023-05-19T16:26:11.876Z,100291.50
2023-05-19T16:28:42.132Z,100295.47
2023-05-19T16:31:12.741Z,100297.97
2023-05-19T16:33:43.686Z,100296.31
2023-05-19T16:36:13.958Z,100298.81
2023-05-19T16:38:47.064Z,100294.25
2023-05-19T16:41:17.850Z,100301.31
2023-05-19T16:43:48.191Z,100291.97
2023-05-19T16:46:21.917Z,100303.38
2023-05-19T16:48:55.109Z,100299.03
2023-05-19T16:51:32.557Z,100294.47
2023-05-19T16:54:05.482Z,100292.78
2023-05-19T16:56:35.764Z,100293.22
2023-05-19T16:59:11.296Z,100289.88
2023-05-19T17:01:43.986Z,100293.63
2023-05-19T17:04:16.415Z,100296.56
2023-05-19T17:06:47.544Z,100300.94
2023-05-19T17:09:25.257Z,100303.00
2023-05-19T17:11:59.162Z,100307.59
2023-05-19T17:14:29.690Z,100313.59
2023-05-19T17:17:02.952Z,100309.22
2023-05-19T17:19:33.353Z,100312.75
2023-05-19T17:22:04.066Z,100321.25
2023-05-19T17:24:36.930Z,100323.13
2023-05-19T17:27:10.436Z,100324.56
2023-05-19T17:29:41.845Z,100336.38
2023-05-19T17:32:14.271Z,100323.31
2023-05-19T17:34:44.639Z,100326.38
2023-05-19T17:37:17.813Z,100331.72
2023-05-19T17:39:53.843Z,100320.47
2023-05-19T17:42:24.228Z,100327.06
2023-05-19T17:44:54.608Z,100323.94
2023-05-19T17:47:29.715Z,100331.53
2023-05-19T17:50:00.294Z,100328.19
2023-05-19T17:52:32.022Z,100336.06
2023-05-19T17:55:10.793Z,100331.84
2023-05-19T17:57:43.445Z,100338.03
2023-05-19T18:00:20.684Z,100330.91
2023-05-19T18:02:52.150Z,100337.28
2023-05-19T18:05:24.133Z,100341.59
2023-05-19T18:07:59.252Z,100342.75
2023-05-19T18:10:38.769Z,100339.41
2023-05-19T18:13:16.943Z,100340.56
2023-05-19T18:15:47.351Z,100345.25
2023-05-19T18:18:20.761Z,100339.19
2023-05-19T18:20:53.195Z,100342.00
2023-05-19T18:23:26.459Z,100348.13
2023-05-19T18:26:02.100Z,100349.28
2023-05-19T18:28:32.838Z,100360.16
2023-05-19T18:31:06.280Z,100362.53
2023-05-19T18:33:39.298Z,100368.38
2023-05-19T18:36:16.110Z,100361.44
2023-05-19T18:38:47.592Z,100370.84
2023-05-19T18:41:20.522Z,100368.25
2023-05-19T18:43:51.167Z,100372.69
2023-05-19T18:46:23.822Z,100376.94
2023-05-19T18:48:58.476Z,100381.03
2023-05-19T18:51:30.250Z,100385.66
2023-05-19T18:54:00.606Z,100382.88
2023-05-19T18:56:37.537Z,100387.16
2023-05-19T18:59:07.941Z,100390.38
2023-05-19T19:01:38.354Z,100390.28
2023-05-19T19:04:09.266Z,100399.25
2023-05-19T19:06:42.007Z,100396.28
2023-05-19T19:09:13.034Z,100391.81
2023-05-19T19:11:45.992Z,100399.03
2023-05-19T19:14:16.331Z,100400.81
2023-05-19T19:16:47.093Z,100402.50
2023-05-19T19:19:20.982Z,100403.69
2023-05-19T19:21:51.833Z,100408.22
2023-05-19T19:24:24.408Z,100403.75
2023-05-19T19:27:00.431Z,100404.59
2023-05-19T19:29:31.166Z,100404.22
2023-05-19T19:32:16.499Z,100405.38
2023-05-19T19:34:49.606Z,100399.03
2023-05-19T19:37:27.612Z,100395.34
2023-05-19T19:39:58.496Z,100398.75
2023-05-19T19:42:35.026Z,100404.84
2023-05-19T19:45:08.318Z,100401.72
2023-05-19T19:47:38.649Z,100398.63
2023-05-19T19:50:10.423Z,100401.44
2023-05-19T19:52:41.049Z,100401.78
2023-05-19T19:55:12.894Z,100394.09
2023-05-19T19:57:49.642Z,100400.31
2023-05-19T20:00:21.228Z,100398.56
2023-05-19T20:03:04.454Z,100401.41
2023-05-19T20:05:36.290Z,100394.34
2023-05-19T20:08:08.860Z,100398.03
2023-05-19T20:10:39.443Z,100395.06
2023-05-19T20:13:12.641Z,100396.06
2023-05-19T20:15:44.103Z,100397.81
2023-05-19T20:18:17.898Z,100401.69
2023-05-19T20:20:50.235Z,100401.88
2023-05-19T20:23:20.647Z,100400.66
2023-05-19T20:26:10.359Z,100406.84
2023-05-19T20:28:45.356Z,100412.22
2023-05-19T20:31:15.916Z,100400.22
2023-05-19T20:33:47.721Z,100403.59
2023-05-19T20:36:18.957Z,100401.63
2023-05-19T20:39:00.964Z,100402.34
2023-05-19T20:41:34.789Z,100404.66
2023-05-19T20:44:12.834Z,100395.47
2023-05-19T20:46:47.051Z,100395.56
2023-05-19T20:49:17.368Z,100395.59
2023-05-19T20:51:50.045Z,100394.63
2023-05-19T20:54:20.502Z,100398.03
2023-05-19T20:56:50.838Z,100394.38
2023-05-19T20:59:32.233Z,100393.22
2023-05-19T21:02:03.738Z,100390.38
2023-05-19T21:04:37.211Z,100390.28
2023-05-19T21:07:10.670Z,100400.66
2023-05-19T21:09:42.973Z,100395.00
2023-05-19T21:12:16.435Z,100385.13
2023-05-19T21:14:52.022Z,100394.06
2023-05-19T21:17:22.721Z,100399.75
2023-05-19T21:19:58.268Z,100400.75
2023-05-19T21:22:29.440Z,100398.59
2023-05-19T21:25:00.495Z,100399.94
2023-05-19T21:27:32.460Z,100403.78
2023-05-19T21:30:13.637Z,100405.47
2023-05-19T21:32:46.199Z,100407.13
2023-05-19T21:35:21.767Z,100396.75
2023-05-19T21:37:52.264Z,100399.44
2023-05-19T21:40:22.722Z,100388.22
2023-05-19T21:42:53.925Z,100394.91
2023-05-19T21:45:29.700Z,100385.88
2023-05-19T21:48:02.927Z,100388.38
2023-05-19T21:50:43.689Z,100394.91
2023-05-19T21:53:13.946Z,100397.09
2023-05-19T21:55:43.963Z,100391.75
2023-05-19T21:58:14.179Z,100393.75
2023-05-19T22:00:52.855Z,100394.94
2023-05-19T22:03:27.096Z,100394.09
2023-05-19T22:05:58.328Z,100387.44
2023-05-19T22:08:28.594Z,100389.63
2023-05-19T22:10:59.028Z,100385.59
2023-05-19T22:13:34.375Z,100392.97
2023-05-19T22:16:10.408Z,100394.16
2023-05-19T22:18:41.044Z,100387.47
2023-05-19T22:21:13.734Z,100396.84
2023-05-19T22:23:44.058Z,100390.19
2023-05-19T22:26:14.315Z,100392.34
2023-05-19T22:28:47.516Z,100386.63
2023-05-19T22:31:20.973Z,100391.66
2023-05-19T22:33:53.915Z,100394.00
2023-05-19T22:36:24.321Z,100391.19
2023-05-19T22:38:54.845Z,100383.81
2023-05-19T22:41:27.895Z,100383.16
2023-05-19T22:43:58.258Z,100387.16
2023-05-19T22:46:33.087Z,100384.97
2023-05-19T22:49:06.371Z,100382.81
2023-05-19T22:51:39.643Z,100382.00
2023-05-19T22:54:10.707Z,100378.97
2023-05-19T22:56:44.454Z,100384.97
2023-05-19T22:59:19.529Z,100388.94
2023-05-19T23:01:52.465Z,100370.03
2023-05-19T23:04:22.809Z,100368.84
2023-05-19T23:06:55.414Z,100379.97
2023-05-19T23:09:27.696Z,100379.25
2023-05-19T23:12:04.020Z,100374.06
2023-05-19T23:14:34.516Z,100381.19
2023-05-19T23:17:13.211Z,100373.97
2023-05-19T23:19:44.979Z,100372.25
2023-05-19T23:22:17.543Z,100368.38
2023-05-19T23:24:47.940Z,100368.31
2023-05-19T23:27:18.185Z,100362.25
2023-05-19T23:29:50.189Z,100357.31
2023-05-19T23:32:23.034Z,100356.16
2023-05-19T23:34:56.165Z,100354.25
2023-05-19T23:37:26.745Z,100346.56
2023-05-19T23:40:02.082Z,100341.38
2023-05-19T23:42:32.445Z,100349.16
2023-05-19T23:45:05.714Z,100345.31
2023-05-19T23:47:43.119Z,100341.44
2023-05-19T23:50:14.065Z,100346.22
2023-05-19T23:52:44.389Z,100345.53
2023-05-19T23:55:15.327Z,100346.38
2023-05-19T23:57:46.038Z,100348.34
